Time;durP1;ratioP1;P1;durP2;ratioP2;P2;SDS_P1;SDS_P2;PMS_P1;PMS_P2;Temp;Humidity;BMP_temperature;BMP_pressure;BME280_temperature;BME280_humidity;BME280_pressure;Samples;Min_cycle;Max_cycle;Signal;HPM_P1;HPM_P2
2022/01/26 00:06:07;;;;;;;13.40;6.47;;;;;;;-3.47;45.13;100628.50;5052363;28;20137;-47
2022/01/26 00:08:32;;;;;;;13.88;6.40;;;;;;;-3.49;45.50;100622.56;5052482;28;20094;-46
2022/01/26 00:10:58;;;;;;;17.45;6.50;;;;;;;-3.39;44.14;100623.66;5052404;28;20467;-48
2022/01/26 00:13:24;;;;;;;13.52;6.15;;;;;;;-3.41;45.41;100626.38;5052076;28;20025;-48
2022/01/26 00:15:49;;;;;;;11.43;5.55;;;;;;;-3.49;44.78;100622.56;5052505;28;20017;-50
2022/01/26 00:18:16;;;;;;;15.75;6.55;;;;;;;-3.60;46.65;100624.03;5052627;28;20047;-50
2022/01/26 00:20:51;;;;;;;15.30;6.35;;;;;;;-3.57;45.71;100618.63;5052303;28;20107;-48
2022/01/26 00:28:30;;;;;;;10.98;5.65;;;;;;;-3.38;44.36;100609.75;5052340;28;20349;-49
2022/01/26 00:31:59;;;;;;;12.98;6.30;;;;;;;-3.43;45.23;100610.00;5051992;28;20428;-49
2022/01/26 00:39:06;;;;;;;11.98;5.63;;;;;;;-3.47;45.60;100597.28;5051710;28;20550;-50
2022/01/26 00:41:35;;;;;;;13.85;5.53;;;;;;;-3.44;44.33;100602.31;5051633;28;20036;-46
2022/01/26 00:44:00;;;;;;;12.20;5.47;;;;;;;-3.37;43.50;100604.44;5051978;28;20377;-49
2022/01/26 00:46:26;;;;;;;11.93;5.30;;;;;;;-3.22;42.80;100596.63;5051604;28;20503;-46
2022/01/26 00:48:52;;;;;;;11.32;5.80;;;;;;;-3.22;45.00;100600.06;5051648;28;20032;-50
2022/01/26 00:51:20;;;;;;;13.73;5.57;;;;;;;-3.43;42.95;100596.97;5051821;28;20036;-47
2022/01/26 00:53:48;;;;;;;10.98;5.18;;;;;;;-3.21;44.21;100585.28;5051507;28;20095;-47
2022/01/26 00:56:14;;;;;;;11.57;5.10;;;;;;;-3.16;44.98;100588.41;5051539;28;20032;-46
2022/01/26 00:58:39;;;;;;;13.95;5.72;;;;;;;-2.76;46.16;100584.19;5051799;28;20024;-48
2022/01/26 01:01:05;;;;;;;10.82;5.82;;;;;;;-2.65;46.30;100582.66;5051428;28;20053;-49
2022/01/26 01:03:33;;;;;;;14.82;6.40;;;;;;;-2.96;44.43;100579.38;5051059;28;20039;-48
2022/01/26 01:08:27;;;;;;;11.25;5.25;;;;;;;-3.12;44.94;100584.72;5051296;28;20056;-48
2022/01/26 01:10:53;;;;;;;10.77;4.85;;;;;;;-3.09;43.96;100576.69;5050735;28;20509;-51
2022/01/26 01:13:22;;;;;;;10.20;5.43;;;;;;;-3.22;42.90;100581.84;5051033;28;20036;-51
2022/01/26 01:15:48;;;;;;;11.95;5.78;;;;;;;-3.26;43.36;100564.72;5051258;28;20021;-50
2022/01/26 01:18:31;;;;;;;9.35;4.95;;;;;;;-3.47;45.84;100560.84;5050873;28;20021;-48
2022/01/26 01:34:05;;;;;;;10.75;5.10;;;;;;;-3.39;45.22;100548.19;5049906;28;20037;-51
2022/01/26 01:36:32;;;;;;;14.23;5.95;;;;;;;-3.24;43.17;100539.44;5050313;28;20094;-48
2022/01/26 01:38:58;;;;;;;12.00;5.88;;;;;;;-3.24;45.88;100538.59;5050199;28;20017;-51
2022/01/26 01:41:23;;;;;;;13.68;6.10;;;;;;;-3.34;44.89;100540.94;5050067;28;20051;-49
2022/01/26 01:43:49;;;;;;;11.27;5.30;;;;;;;-3.28;43.44;100531.91;5049643;28;20480;-49
2022/01/26 01:46:14;;;;;;;12.23;6.05;;;;;;;-3.31;42.83;100547.72;5050431;28;20393;-49
2022/01/26 01:48:40;;;;;;;12.40;5.30;;;;;;;-3.41;43.47;100537.03;5049967;28;20024;-50
2022/01/26 01:51:09;;;;;;;14.13;5.57;;;;;;;-3.22;45.27;100540.19;5049865;28;20020;-50
2022/01/26 01:53:42;;;;;;;10.75;5.35;;;;;;;-3.20;42.82;100540.06;5050210;28;20495;-48
2022/01/26 01:56:09;;;;;;;10.10;5.10;;;;;;;-3.09;42.47;100529.81;5050471;28;20059;-49
2022/01/26 01:58:35;;;;;;;11.80;5.82;;;;;;;-2.82;41.57;100535.06;5050142;28;20464;-48
2022/01/26 02:01:00;;;;;;;9.88;5.28;;;;;;;-2.97;42.99;100530.81;5050340;28;20028;-49
2022/01/26 02:03:26;;;;;;;10.80;5.57;;;;;;;-2.89;46.90;100532.94;5050085;28;20016;-49
2022/01/26 02:05:51;;;;;;;10.50;5.03;;;;;;;-3.25;42.26;100523.91;5048486;28;20025;-50
2022/01/26 02:08:17;;;;;;;9.07;4.97;;;;;;;-3.31;41.38;100522.53;5050068;28;20091;-47
2022/01/26 02:10:43;;;;;;;10.95;4.80;;;;;;;-3.29;42.15;100522.41;5049767;28;20076;-50
2022/01/26 02:13:17;;;;;;;10.65;5.22;;;;;;;-3.12;44.42;100529.19;5046930;28;20072;-48
2022/01/26 02:16:30;;;;;;;11.02;5.00;;;;;;;-3.16;41.09;100511.16;5049940;28;20033;-51
2022/01/26 03:04:38;;;;;;;;;;;;;;;-2.88;41.98;100496.38;5054326;28;20029;-49
2022/01/26 03:07:20;;;;;;;10.23;5.20;;;;;;;-2.78;41.27;100487.03;5053399;28;20304;-51
2022/01/26 03:09:54;;;;;;;11.98;5.65;;;;;;;-3.06;42.49;100487.97;5053228;28;20048;-48
2022/01/26 03:12:30;;;;;;;10.10;5.05;;;;;;;-2.71;41.10;100479.66;5053435;28;20120;-50
2022/01/26 03:15:00;;;;;;;11.50;5.43;;;;;;;-2.66;41.53;100485.41;5053612;28;20021;-47
2022/01/26 03:20:13;;;;;;;13.07;5.38;;;;;;;-2.88;41.61;100479.91;5053536;28;20112;-47
2022/01/26 03:28:24;;;;;;;12.80;5.60;;;;;;;-2.46;42.49;100460.63;5053298;28;20036;-50
2022/01/26 03:33:53;;;;;;;13.05;5.40;;;;;;;-2.80;41.75;100462.00;5053523;28;20029;-50
2022/01/26 03:36:19;;;;;;;9.85;4.72;;;;;;;-2.95;41.69;100448.22;5053343;28;20086;-47
2022/01/26 03:38:49;;;;;;;11.70;5.07;;;;;;;-2.84;42.66;100461.38;5052763;28;20104;-48
2022/01/26 03:41:33;;;;;;;10.75;5.20;;;;;;;-2.95;42.47;100458.66;5052630;28;20102;-49
2022/01/26 03:43:59;;;;;;;10.23;5.03;;;;;;;-2.80;42.36;100460.25;5052930;28;20155;-48
2022/01/26 03:46:25;;;;;;;11.60;5.47;;;;;;;-2.67;42.01;100459.44;5052945;28;20044;-48
2022/01/26 03:48:50;;;;;;;11.60;5.28;;;;;;;-2.87;42.46;100460.75;5052626;28;20017;-51
2022/01/26 03:51:16;;;;;;;12.90;5.90;;;;;;;-2.68;43.44;100460.38;5052755;28;20090;-49
2022/01/26 03:53:41;;;;;;;11.35;5.63;;;;;;;-2.49;44.45;100458.22;5051431;28;20074;-49
2022/01/26 03:56:06;;;;;;;13.32;5.45;;;;;;;-2.36;42.99;100464.28;5052667;28;20083;-49
2022/01/26 03:58:32;;;;;;;12.77;5.40;;;;;;;-2.53;41.80;100459.38;5051206;28;20044;-48
2022/01/26 04:00:57;;;;;;;12.90;6.07;;;;;;;-2.57;42.49;100463.09;5052573;28;20040;-48
2022/01/26 04:03:23;;;;;;;11.13;5.43;;;;;;;-2.86;43.30;100458.03;5051656;28;20032;-50
2022/01/26 04:05:48;;;;;;;10.68;5.40;;;;;;;-2.83;44.56;100452.63;5052666;28;20138;-49
2022/01/26 04:08:24;;;;;;;11.88;5.75;;;;;;;-2.69;44.21;100453.50;5051260;28;20033;-50
2022/01/26 04:13:14;;;;;;;14.77;5.32;;;;;;;-2.59;43.52;100457.16;5052309;28;20025;-49
2022/01/26 04:15:40;;;;;;;11.50;5.75;;;;;;;-2.36;42.56;100461.69;5052510;28;20024;-50
2022/01/26 04:18:10;;;;;;;10.77;4.63;;;;;;;-2.64;43.58;100449.66;5052555;28;20021;-50
2022/01/26 04:20:40;;;;;;;10.95;5.13;;;;;;;-2.52;43.28;100449.78;5052185;28;20127;-51
2022/01/26 04:23:21;;;;;;;13.07;5.63;;;;;;;-2.92;42.83;100448.00;5052173;28;20415;-49
2022/01/26 04:25:48;;;;;;;10.68;5.18;;;;;;;-2.73;42.34;100452.84;5052071;28;20354;-49
2022/01/26 04:28:20;;;;;;;8.45;4.13;;;;;;;-2.95;42.25;100443.03;5051983;28;20142;-46
2022/01/26 04:30:46;;;;;;;11.50;5.75;;;;;;;-2.69;44.18;100448.28;5052097;28;20033;-51
2022/01/26 04:33:11;;;;;;;9.45;4.80;;;;;;;-2.64;41.51;100447.03;5052135;28;20025;-49
2022/01/26 04:35:42;;;;;;;10.13;5.07;;;;;;;-2.81;43.42;100450.75;5051976;28;20050;-49
2022/01/26 04:38:26;;;;;;;10.00;5.05;;;;;;;-2.79;42.47;100441.06;5052058;28;20017;-49
2022/01/26 04:43:22;;;;;;;18.88;7.93;;;;;;;-2.38;43.43;100442.72;5052266;28;20095;-49
2022/01/26 04:45:47;;;;;;;13.98;6.95;;;;;;;-2.62;45.05;100446.94;5051967;28;20029;-51
2022/01/26 04:48:13;;;;;;;21.17;8.27;;;;;;;-2.29;43.35;100440.41;5050262;28;20028;-50
2022/01/26 04:50:38;;;;;;;10.43;5.30;;;;;;;-2.48;42.21;100448.63;5051723;28;20021;-36
2022/01/26 04:53:04;;;;;;;11.32;5.35;;;;;;;-2.47;43.30;100451.13;5051667;28;20416;-36
2022/01/26 04:55:29;;;;;;;12.35;5.10;;;;;;;-2.72;43.28;100438.03;5051746;28;20025;-35
2022/01/26 04:57:55;;;;;;;12.13;6.03;;;;;;;-2.52;42.95;100449.78;5050314;28;20032;-36
2022/01/26 05:00:20;;;;;;;14.43;6.05;;;;;;;-2.60;42.69;100437.25;5051397;28;20477;-36
2022/01/26 05:02:45;;;;;;;13.20;6.55;;;;;;;-2.38;43.45;100439.25;5051747;28;20029;-35
2022/01/26 05:05:12;;;;;;;10.48;5.13;;;;;;;-2.45;42.12;100427.59;5051617;28;20021;-37
2022/01/26 05:07:37;;;;;;;12.52;6.10;;;;;;;-2.60;44.86;100439.84;5051471;28;20043;-37
2022/01/26 05:10:04;;;;;;;13.55;6.32;;;;;;;-2.22;43.37;100433.84;5051389;28;20052;-39
2022/01/26 05:12:30;;;;;;;12.38;5.72;;;;;;;-1.93;41.87;100444.06;5051508;28;20028;-35
2022/01/26 05:14:55;;;;;;;12.70;6.63;;;;;;;-2.09;42.01;100449.50;5051485;28;20028;-36
2022/01/26 05:17:22;;;;;;;13.25;6.03;;;;;;;-2.00;41.12;100454.91;5051341;28;20029;-36
2022/01/26 05:19:53;;;;;;;11.18;6.10;;;;;;;-2.24;42.94;100444.38;5051252;28;20023;-36
2022/01/26 05:22:18;;;;;;;10.60;5.45;;;;;;;-2.36;43.43;100450.44;5051406;28;20191;-35
2022/01/26 05:24:44;;;;;;;12.25;5.43;;;;;;;-2.42;42.12;100450.81;5051014;28;20036;-36
2022/01/26 05:27:09;;;;;;;14.35;5.68;;;;;;;-2.62;42.79;100454.75;5051157;28;20024;-37
2022/01/26 05:29:35;;;;;;;14.75;5.85;;;;;;;-2.62;43.79;100455.59;5050295;28;20029;-36
2022/01/26 05:32:00;;;;;;;16.25;6.65;;;;;;;-2.54;44.74;100452.47;5050978;28;20021;-36
2022/01/26 05:34:26;;;;;;;13.75;6.63;;;;;;;-2.35;43.92;100449.47;5051074;28;20381;-36
2022/01/26 05:36:51;;;;;;;14.90;6.47;;;;;;;-2.02;45.50;100448.97;5047304;28;20029;-36
2022/01/26 05:39:16;;;;;;;16.25;6.75;;;;;;;-1.88;42.56;100441.97;5048663;28;20025;-36
2022/01/26 05:41:42;;;;;;;13.25;6.57;;;;;;;-1.85;43.19;100447.78;5042281;28;20067;-36
2022/01/26 05:44:08;;;;;;;12.82;6.15;;;;;;;-2.07;42.59;100445.00;5050973;28;20021;-48
2022/01/26 05:46:44;;;;;;;14.05;6.15;;;;;;;-2.42;43.81;100440.38;5050976;28;20025;-48
2022/01/26 05:49:10;;;;;;;14.93;6.70;;;;;;;-2.29;43.88;100449.06;5050854;28;20025;-50
2022/01/26 05:51:36;;;;;;;17.55;8.50;;;;;;;-2.04;44.62;100445.59;5049243;28;20151;-52
2022/01/26 05:54:02;;;;;;;13.38;5.78;;;;;;;-2.13;43.06;100442.81;5050403;28;20017;-36
2022/01/26 05:56:29;;;;;;;13.55;6.85;;;;;;;-2.15;42.95;100442.94;5048920;28;20040;-36
2022/01/26 05:58:54;;;;;;;14.63;6.57;;;;;;;-2.38;43.80;100453.13;5047901;28;20021;-36
2022/01/26 06:01:21;;;;;;;15.00;5.97;;;;;;;-2.14;43.39;100451.59;5049203;28;20043;-36
2022/01/26 06:03:46;;;;;;;14.88;7.20;;;;;;;-1.89;43.77;100461.16;5049339;28;20032;-36
2022/01/26 06:06:12;;;;;;;11.10;5.90;;;;;;;-2.41;43.02;100449.91;5048654;28;20032;-36
2022/01/26 06:08:37;;;;;;;15.60;6.72;;;;;;;-1.98;43.83;100455.66;5048728;28;20036;-37
2022/01/26 06:11:04;;;;;;;18.77;8.90;;;;;;;-1.68;41.99;100469.28;5049232;28;20032;-36
2022/01/26 06:13:29;;;;;;;43.72;18.95;;;;;;;-1.79;43.15;100465.66;5049047;28;20496;-36
2022/01/26 06:15:55;;;;;;;15.40;6.85;;;;;;;-1.48;42.81;100467.91;5049424;28;20032;-37
2022/01/26 06:18:20;;;;;;;16.08;6.68;;;;;;;-1.42;43.26;100468.28;5048552;28;20036;-36
2022/01/26 06:20:46;;;;;;;20.20;9.80;;;;;;;-1.74;43.67;100470.53;5049021;28;20112;-36
2022/01/26 06:23:11;;;;;;;14.25;7.18;;;;;;;-1.90;43.75;100469.94;5049033;28;20043;-36
2022/01/26 06:25:37;;;;;;;13.90;6.75;;;;;;;-1.66;42.53;100478.66;5049116;28;20504;-36
2022/01/26 06:28:07;;;;;;;14.30;6.70;;;;;;;-1.60;43.22;100470.44;5048896;28;20021;-36
2022/01/26 06:30:32;;;;;;;14.25;6.38;;;;;;;-1.54;43.04;100470.91;5051889;28;20515;-36
2022/01/26 06:32:58;;;;;;;15.48;7.90;;;;;;;-1.32;42.83;100468.47;5055956;28;20029;-36
2022/01/26 06:35:23;;;;;;;14.75;6.03;;;;;;;-1.59;42.23;100469.47;5055668;28;20029;-35
2022/01/26 06:37:49;;;;;;;19.35;7.63;;;;;;;-1.05;44.33;100475.25;5055909;28;20033;-36
2022/01/26 06:40:14;;;;;;;19.10;8.32;;;;;;;-0.49;43.33;100483.34;5055834;28;20128;-40
2022/01/26 06:45:39;;;;;;;15.13;7.68;;;;;;;-0.04;40.71;100478.22;5051221;28;20107;-37
2022/01/26 06:50:43;;;;;;;11.13;6.03;;;;;;;-0.01;39.46;100477.97;5056268;28;20086;-37
2022/01/26 06:53:08;;;;;;;11.50;6.13;;;;;;;-0.06;39.77;100479.28;5056103;28;20029;-37
2022/01/26 06:55:34;;;;;;;14.90;6.47;;;;;;;-0.28;40.58;100485.31;5055690;28;20032;-37
2022/01/26 06:57:59;;;;;;;15.93;7.45;;;;;;;-0.27;40.80;100482.56;5055952;28;20036;-37
2022/01/26 07:00:25;;;;;;;12.55;6.90;;;;;;;-0.53;41.35;100481.91;5056034;28;20035;-37
2022/01/26 07:02:52;;;;;;;14.80;7.38;;;;;;;-0.30;41.07;100479.38;5055537;28;20052;-35
2022/01/26 07:05:18;;;;;;;16.83;8.55;;;;;;;-0.58;42.58;100488.44;5055803;28;20048;-37
2022/01/26 07:07:43;;;;;;;17.83;8.57;;;;;;;-0.38;41.48;100490.41;5055887;28;20037;-37
2022/01/26 07:10:09;;;;;;;15.13;7.28;;;;;;;-0.45;42.31;100484.78;5055220;28;20060;-37
2022/01/26 07:12:34;;;;;;;19.00;8.65;;;;;;;-0.25;41.23;100485.94;5055654;28;20033;-37
2022/01/26 07:23:07;;;;;;;17.05;8.30;;;;;;;-0.57;41.88;100479.63;5055298;28;20045;-36
2022/01/26 07:25:32;;;;;;;14.75;7.30;;;;;;;-0.56;42.04;100482.13;5055171;28;20025;-36
2022/01/26 07:27:59;;;;;;;17.50;8.18;;;;;;;-0.57;42.96;100472.63;5055061;28;20369;-36
2022/01/26 07:30:24;;;;;;;16.77;7.63;;;;;;;-0.73;42.74;100472.91;5055197;28;20033;-36
2022/01/26 07:32:50;;;;;;;15.25;7.15;;;;;;;-0.66;42.91;100475.94;5055561;28;20491;-37
2022/01/26 07:35:15;;;;;;;13.38;7.47;;;;;;;-0.77;44.01;100479.31;5055185;28;20025;-37
2022/01/26 07:37:43;;;;;;;19.95;7.10;;;;;;;-0.76;44.34;100483.63;5055014;28;20028;-36
2022/01/26 07:40:09;;;;;;;18.23;7.72;;;;;;;-0.71;43.61;100478.03;5055235;28;20043;-36
2022/01/26 07:42:35;;;;;;;14.80;6.57;;;;;;;-0.93;44.32;100478.75;5051327;28;20032;-37
2022/01/26 07:45:02;;;;;;;15.57;7.35;;;;;;;-0.60;43.84;100472.84;5051690;28;20025;-38
2022/01/26 07:47:31;;;;;;;18.88;8.00;;;;;;;-0.35;42.82;100473.66;5051990;28;20025;-37
2022/01/26 07:49:57;;;;;;;14.35;6.30;;;;;;;-0.23;42.42;100472.72;5051745;28;20103;-37
2022/01/26 07:52:24;;;;;;;13.20;5.90;;;;;;;-0.55;43.34;100470.75;5051636;28;20033;-37
2022/01/26 07:54:51;;;;;;;11.65;5.50;;;;;;;-0.49;43.32;100478.13;5052310;28;20102;-36
2022/01/26 07:57:18;;;;;;;17.80;7.32;;;;;;;-0.54;43.89;100468.94;5051796;28;20025;-38
2022/01/26 07:59:44;;;;;;;14.93;6.47;;;;;;;-0.77;44.35;100466.25;5051879;28;20055;-37
2022/01/26 08:02:09;;;;;;;14.68;6.28;;;;;;;-0.52;43.95;100469.66;5051621;28;20038;-37
2022/01/26 08:04:35;;;;;;;16.05;7.00;;;;;;;-0.17;43.52;100474.03;5051935;28;20033;-50
2022/01/26 08:07:00;;;;;;;11.02;4.80;;;;;;;-0.30;43.39;100482.81;5051751;28;20025;-49
2022/01/26 08:09:25;;;;;;;15.98;7.28;;;;;;;0.01;44.00;100479.66;5051494;28;20421;-51
2022/01/26 08:11:51;;;;;;;16.40;7.72;;;;;;;-0.09;44.58;100472.50;5051148;28;20033;-51
2022/01/26 08:14:16;;;;;;;19.27;7.35;;;;;;;0.12;43.77;100474.44;5051214;28;20036;-51
2022/01/26 08:16:43;;;;;;;26.83;10.35;;;;;;;-0.05;43.70;100473.09;5051661;28;20462;-48
2022/01/26 08:19:08;;;;;;;22.38;8.43;;;;;;;-0.05;43.36;100471.31;5051874;28;20025;-51
2022/01/26 08:21:34;;;;;;;18.67;8.02;;;;;;;0.18;46.05;100472.16;5051509;28;20108;-50
2022/01/26 08:24:03;;;;;;;22.88;9.88;;;;;;;0.26;44.08;100466.34;5051115;28;20025;-51
2022/01/26 08:26:39;;;;;;;19.55;8.68;;;;;;;0.27;44.32;100472.44;5051301;28;20029;-50
2022/01/26 08:29:12;;;;;;;15.75;7.45;;;;;;;0.14;43.92;100473.34;5050947;28;20588;-50
2022/01/26 08:31:37;;;;;;;16.35;8.05;;;;;;;0.17;45.72;100465.28;5051267;28;20021;-50
2022/01/26 08:34:03;;;;;;;16.80;8.05;;;;;;;0.15;44.15;100463.72;5051257;28;20098;-49
2022/01/26 08:36:28;;;;;;;16.80;8.02;;;;;;;0.21;43.71;100478.13;5051152;28;20076;-51
2022/01/26 08:38:54;;;;;;;17.70;8.43;;;;;;;0.08;44.87;100473.00;5050673;28;20468;-51
2022/01/26 08:41:19;;;;;;;13.60;7.45;;;;;;;0.12;44.64;100472.66;5051098;28;20029;-51
2022/01/26 08:43:45;;;;;;;15.52;7.80;;;;;;;0.28;45.69;100474.06;5051008;28;20032;-52
2022/01/26 08:46:10;;;;;;;12.02;6.45;;;;;;;0.24;44.79;100475.28;5050774;28;20025;-50
2022/01/26 08:48:35;;;;;;;11.90;5.63;;;;;;;0.18;44.03;100481.81;5051178;28;20021;-52
2022/01/26 08:51:01;;;;;;;13.98;5.97;;;;;;;0.37;44.42;100465.50;5050974;28;20032;-51
2022/01/26 08:53:26;;;;;;;13.57;7.03;;;;;;;0.60;43.47;100461.06;5050399;28;20025;-48
2022/01/26 08:55:52;;;;;;;14.90;6.65;;;;;;;0.79;44.01;100460.44;5050869;28;20404;-51
2022/01/26 08:58:18;;;;;;;15.50;7.40;;;;;;;0.83;44.42;100458.41;5050528;28;20130;-51
2022/01/26 09:00:44;;;;;;;23.63;8.88;;;;;;;0.72;44.28;100462.75;5051008;28;20281;-49
2022/01/26 09:03:10;;;;;;;26.27;10.40;;;;;;;0.88;43.69;100458.88;5050250;28;20048;-52
2022/01/26 09:05:35;;;;;;;23.38;9.32;;;;;;;0.57;44.11;100474.41;5049775;28;20028;-50
2022/01/26 09:08:03;;;;;;;19.45;7.10;;;;;;;0.73;45.09;100466.19;5049806;28;20480;-48
2022/01/26 09:10:30;;;;;;;15.23;6.70;;;;;;;0.42;44.49;100462.50;5050010;28;20087;-49
2022/01/26 09:12:56;;;;;;;14.55;6.88;;;;;;;0.21;44.51;100465.03;5049678;28;20033;-50
2022/01/26 09:15:27;;;;;;;21.83;8.95;;;;;;;0.47;44.16;100455.97;5048736;28;20086;-50
2022/01/26 09:17:57;;;;;;;14.60;7.40;;;;;;;0.29;44.97;100463.50;5050339;28;20155;-52
2022/01/26 09:20:22;;;;;;;;;;;;;;;0.61;45.41;100457.50;5050945;28;20051;-49
2022/01/26 09:22:48;;;;;;;18.13;7.10;;;;;;;0.68;44.64;100456.06;5050353;28;20328;-49
2022/01/26 09:25:13;;;;;;;17.75;7.38;;;;;;;0.34;45.20;100463.97;5050322;28;20025;-51
2022/01/26 09:27:39;;;;;;;17.00;6.50;;;;;;;0.49;44.53;100443.56;5050391;28;20461;-51
2022/01/26 09:30:05;;;;;;;13.32;6.60;;;;;;;0.46;45.02;100435.97;5049819;28;20047;-51
2022/01/26 09:32:30;;;;;;;15.07;6.65;;;;;;;0.78;44.42;100445.66;5049893;28;20076;-52
2022/01/26 09:34:56;;;;;;;18.20;7.55;;;;;;;1.10;44.06;100445.69;5049732;28;20028;-51
2022/01/26 09:37:21;;;;;;;14.85;7.32;;;;;;;1.01;44.32;100438.59;5050221;28;20025;-52
2022/01/26 09:39:47;;;;;;;14.27;6.55;;;;;;;1.01;44.05;100442.97;5049695;28;20017;-50
2022/01/26 09:42:13;;;;;;;14.82;6.93;;;;;;;1.23;45.04;100444.69;5050034;28;20033;-50
2022/01/26 09:44:38;;;;;;;14.25;7.65;;;;;;;1.22;44.70;100446.50;5048645;28;20412;-51
2022/01/26 09:47:04;;;;;;;15.57;6.88;;;;;;;1.07;45.74;100445.13;5049652;28;20086;-51
2022/01/26 09:49:34;;;;;;;16.40;7.45;;;;;;;1.01;45.10;100432.50;5049740;28;20021;-50
2022/01/26 09:52:07;;;;;;;20.73;7.13;;;;;;;1.18;45.37;100447.69;5050107;28;20021;-51
2022/01/26 09:54:32;;;;;;;15.15;6.57;;;;;;;0.67;46.56;100433.44;5049402;28;20032;-51
2022/01/26 09:57:03;;;;;;;16.98;9.23;;;;;;;1.15;45.82;100435.66;5049483;28;20021;-52
2022/01/26 09:59:29;;;;;;;15.35;6.68;;;;;;;1.40;45.74;100440.69;5049436;28;20028;-51
2022/01/26 10:01:54;;;;;;;16.13;7.18;;;;;;;1.39;47.69;100437.25;5049416;28;20025;-50
2022/01/26 10:04:27;;;;;;;14.57;7.35;;;;;;;1.44;45.52;100427.19;5049315;28;20032;-51
2022/01/26 10:07:11;;;;;;;16.95;7.15;;;;;;;1.64;45.93;100425.53;5048854;28;20668;-50
2022/01/26 10:17:38;;;;;;;13.90;7.20;;;;;;;1.67;44.92;100414.75;5049282;28;20028;-48
2022/01/26 10:20:04;;;;;;;13.77;6.85;;;;;;;1.56;46.65;100410.44;5049492;28;20035;-50
2022/01/26 10:22:34;;;;;;;12.32;5.95;;;;;;;1.71;45.79;100399.59;5049438;28;20127;-51
2022/01/26 10:25:06;;;;;;;15.52;6.80;;;;;;;1.91;46.76;100405.78;5048981;28;20099;-51
2022/01/26 10:27:40;;;;;;;13.88;5.80;;;;;;;1.65;45.81;100394.84;5048871;28;20539;-50
2022/01/26 10:30:07;;;;;;;16.10;6.60;;;;;;;1.75;45.73;100393.09;5048953;28;20369;-50
2022/01/26 10:32:33;;;;;;;15.93;6.90;;;;;;;1.89;47.03;100399.81;5049312;28;20033;-50
2022/01/26 10:35:02;;;;;;;14.38;6.05;;;;;;;1.78;46.76;100407.78;5048806;28;20074;-50
2022/01/26 10:37:28;;;;;;;14.57;6.70;;;;;;;1.78;46.06;100392.84;5049163;28;20029;-50
2022/01/26 10:39:56;;;;;;;16.52;6.65;;;;;;;1.91;46.30;100388.22;5049102;28;20594;-51
2022/01/26 10:42:24;;;;;;;12.05;6.22;;;;;;;1.84;46.36;100391.50;5047574;28;20108;-50
2022/01/26 10:45:02;;;;;;;12.45;6.20;;;;;;;1.85;47.31;100396.63;5049103;28;20024;-51
2022/01/26 10:47:32;;;;;;;12.48;6.50;;;;;;;1.97;47.93;100389.50;5049238;28;20032;-49
2022/01/26 10:52:41;;;;;;;12.38;6.57;;;;;;;1.83;47.20;100380.19;5049166;28;20036;-48
2022/01/26 10:55:07;;;;;;;13.23;6.90;;;;;;;1.86;47.96;100386.94;5047181;28;20025;-51
2022/01/26 10:57:35;;;;;;;17.02;7.90;;;;;;;2.09;47.81;100377.91;5048940;28;20017;-49
2022/01/26 11:00:01;;;;;;;15.65;7.47;;;;;;;2.29;46.67;100381.44;5048908;28;20571;-50
2022/01/26 11:02:30;;;;;;;11.02;6.18;;;;;;;2.11;47.33;100377.78;5047242;28;20025;-50
2022/01/26 11:04:56;;;;;;;17.08;7.53;;;;;;;2.12;46.95;100372.41;5048916;28;20027;-51
2022/01/26 11:07:29;;;;;;;24.02;8.60;;;;;;;2.23;47.02;100368.84;5048553;28;20025;-50
2022/01/26 11:09:54;;;;;;;16.15;8.40;;;;;;;2.17;47.55;100358.03;5047148;28;20045;-51
2022/01/26 11:12:27;;;;;;;14.70;8.00;;;;;;;2.38;46.65;100361.44;5048436;28;20021;-51
2022/01/26 11:14:57;;;;;;;18.40;8.95;;;;;;;2.52;46.95;100355.75;5048879;28;20453;-55
2022/01/26 11:17:37;;;;;;;14.07;7.90;;;;;;;2.60;46.95;100352.47;5051645;28;20126;-52
2022/01/26 11:20:20;;;;;;;17.50;8.87;;;;;;;2.82;46.12;100364.53;5052412;28;20052;-52
2022/01/26 11:22:58;;;;;;;15.57;8.40;;;;;;;2.57;47.37;100349.28;5053001;28;20021;-47
2022/01/26 11:25:25;;;;;;;16.50;8.32;;;;;;;2.83;47.47;100354.81;5052739;28;20059;-52
2022/01/26 11:27:51;;;;;;;15.98;8.00;;;;;;;3.00;46.39;100353.31;5052707;28;20032;-53
2022/01/26 11:30:24;;;;;;;15.95;8.40;;;;;;;3.29;47.04;100348.84;5052352;28;20488;-50
2022/01/26 11:32:57;;;;;;;14.32;8.48;;;;;;;3.36;46.36;100337.75;5052320;28;20031;-50
2022/01/26 11:35:24;;;;;;;16.10;8.35;;;;;;;3.16;46.36;100332.53;5052350;28;20044;-36
2022/01/26 11:46:33;;;;;;;16.20;7.47;;;;;;;3.25;46.01;100328.22;5052280;28;20089;-39
2022/01/26 11:49:10;;;;;;;17.67;8.52;;;;;;;3.36;46.65;100341.19;5034423;28;20028;-37
2022/01/26 11:51:43;;;;;;;16.20;8.20;;;;;;;3.33;46.40;100321.28;5052198;28;20373;-37
2022/01/26 11:54:19;;;;;;;14.45;7.75;;;;;;;3.18;46.52;100325.31;5051882;28;20320;-38
2022/01/26 11:57:06;;;;;;;19.13;9.27;;;;;;;3.51;46.23;100323.16;5052171;28;20035;-38
2022/01/26 11:59:33;;;;;;;20.33;8.93;;;;;;;4.03;45.27;100318.22;5052032;28;20107;-37
2022/01/26 12:02:07;;;;;;;21.13;8.90;;;;;;;3.77;45.91;100317.22;5051889;28;20351;-39
2022/01/26 12:04:35;;;;;;;15.75;8.60;;;;;;;3.91;45.89;100314.97;5052101;28;20024;-39
2022/01/26 12:07:18;;;;;;;14.75;7.85;;;;;;;3.78;46.48;100313.63;5052294;28;20051;-38
2022/01/26 12:09:44;;;;;;;15.38;7.57;;;;;;;3.71;46.73;100319.50;5051020;28;20045;-40
2022/01/26 12:12:16;;;;;;;14.95;7.30;;;;;;;3.70;47.34;100306.47;5049912;28;20021;-38
2022/01/26 12:14:41;;;;;;;16.90;8.43;;;;;;;4.16;47.03;100317.88;5050898;28;20033;-38
2022/01/26 12:17:12;;;;;;;13.82;7.63;;;;;;;4.26;46.60;100308.09;5050905;28;20035;-39
2022/01/26 12:19:52;;;;;;;16.95;7.45;;;;;;;4.06;47.38;100307.41;5049615;28;20051;-37
2022/01/26 12:34:32;;;;;;;19.27;8.75;;;;;;;4.37;47.05;100312.34;5048942;28;20516;-38
2022/01/26 12:36:37;;;;;;;16.75;9.18;;;;;;;4.29;47.05;100302.53;5043294;28;20036;-38
2022/01/26 12:39:09;;;;;;;17.75;9.20;;;;;;;4.18;47.13;100296.66;5047880;28;20322;-38
2022/01/26 12:41:37;;;;;;;17.83;8.50;;;;;;;4.26;46.86;100297.56;5047039;28;20036;-39
2022/01/26 12:44:10;;;;;;;16.77;9.27;;;;;;;4.25;46.91;100300.38;5049680;28;20029;-38
2022/01/26 12:46:36;;;;;;;16.80;9.02;;;;;;;4.17;47.09;100303.75;5026740;28;20041;-38
2022/01/26 12:49:10;;;;;;;19.98;9.48;;;;;;;4.74;46.40;100308.75;5049336;28;20036;-37
2022/01/26 12:51:46;;;;;;;16.88;8.82;;;;;;;4.17;47.30;100298.47;5049510;28;20487;-39
2022/01/26 12:54:12;;;;;;;19.13;9.43;;;;;;;4.16;49.06;100304.69;5031384;28;20447;-37
2022/01/26 12:56:37;;;;;;;18.63;8.65;;;;;;;4.41;48.54;100295.25;5050562;28;20021;-38
2022/01/26 12:59:11;;;;;;;18.00;8.68;;;;;;;4.60;46.94;100296.91;5050445;28;20083;-38
2022/01/26 13:01:37;;;;;;;16.60;8.05;;;;;;;4.44;46.80;100302.03;5048564;28;20063;-39
2022/01/26 13:04:04;;;;;;;16.77;8.48;;;;;;;4.47;46.83;100299.06;5050538;28;20032;-37
2022/01/26 13:06:31;;;;;;;21.02;10.05;;;;;;;4.27;47.18;100299.22;5050638;28;20033;-37
2022/01/26 13:09:01;;;;;;;16.90;8.65;;;;;;;4.35;47.59;100305.56;5050586;28;20045;-37
2022/01/26 13:11:27;;;;;;;20.25;9.38;;;;;;;4.21;48.22;100299.00;5050580;28;20102;-37
2022/01/26 13:14:02;;;;;;;15.85;7.78;;;;;;;4.04;47.71;100300.63;5050158;28;20040;-38
2022/01/26 13:16:35;;;;;;;15.15;7.85;;;;;;;4.23;47.56;100308.41;5051357;28;20095;-38
2022/01/26 13:19:15;;;;;;;18.50;7.75;;;;;;;4.39;47.77;100310.38;5051612;28;20048;-39
2022/01/26 13:22:04;;;;;;;15.48;7.68;;;;;;;4.37;47.33;100307.06;5050274;28;20052;-37
2022/01/26 13:25:00;;;;;;;13.52;7.32;;;;;;;4.26;47.72;100313.34;5050737;28;20036;-37
2022/01/26 13:30:11;;;;;;;16.13;7.90;;;;;;;4.46;47.21;100310.63;5050137;28;20032;-38
2022/01/26 13:41:07;;;;;;;13.32;7.90;;;;;;;4.65;47.22;100314.91;5049702;28;20024;-37
2022/01/26 13:51:36;;;;;;;15.07;7.70;;;;;;;4.00;49.42;100301.88;5050192;28;20053;-37
2022/01/26 13:53:59;;;;;;;27.65;7.60;;;;;;;4.93;52.44;100314.81;5049575;28;20110;-38
2022/01/26 13:56:40;;;;;;;12.98;6.85;;;;;;;6.24;51.15;100313.75;5050190;28;20028;-38
2022/01/26 13:59:21;;;;;;;;;;;;;;;6.53;48.61;100317.75;5050596;28;20424;-38
2022/01/26 14:01:48;;;;;;;18.67;9.18;;;;;;;7.28;44.97;100308.81;5050009;28;20394;-38
2022/01/26 14:04:15;;;;;;;12.68;7.15;;;;;;;5.32;45.38;100309.16;5048843;28;20444;-37